createdAt,value
2023-05-16T00:01:55.661Z,40.98
2023-05-16T00:04:26.669Z,40.95
2023-05-16T00:06:57.457Z,40.96
2023-05-16T00:09:27.590Z,41.00
2023-05-16T00:11:56.595Z,41.10
2023-05-16T00:14:27.061Z,41.27
2023-05-16T00:16:58.792Z,41.42
2023-05-16T00:19:29.502Z,41.50
2023-05-16T00:21:58.708Z,41.69
2023-05-16T00:24:28.552Z,41.86
2023-05-16T00:26:57.794Z,41.88
2023-05-16T00:29:26.932Z,42.12
2023-05-16T00:31:57.392Z,42.37
2023-05-16T00:34:26.649Z,42.62
2023-05-16T00:36:55.809Z,42.89
2023-05-16T00:39:25.296Z,42.86
2023-05-16T00:41:54.465Z,43.00
2023-05-16T00:44:23.638Z,43.08
2023-05-16T00:46:55.112Z,43.09
2023-05-16T00:49:24.105Z,43.17
2023-05-16T00:51:53.887Z,43.22
2023-05-16T00:54:25.235Z,43.06
2023-05-16T00:56:55.055Z,43.02
2023-05-16T00:59:24.790Z,42.94
2023-05-16T01:01:55.479Z,42.92
2023-05-16T01:04:25.358Z,43.00
2023-05-16T01:06:59.201Z,43.04
2023-05-16T01:09:31.257Z,43.02
2023-05-16T01:12:30.216Z,42.98
2023-05-16T01:15:23.304Z,42.99
2023-05-16T01:18:11.146Z,43.03
2023-05-16T01:21:00.891Z,43.12
2023-05-16T01:23:40.377Z,43.27
2023-05-16T01:26:25.606Z,43.30
2023-05-16T01:28:55.331Z,43.23
2023-05-16T01:31:25.061Z,43.38
2023-05-16T01:33:54.648Z,43.56
2023-05-16T01:36:50.602Z,43.67
2023-05-16T01:39:47.720Z,43.91
2023-05-16T01:42:17.270Z,44.27
2023-05-16T01:44:59.489Z,44.64
2023-05-16T01:47:29.712Z,44.80
2023-05-16T01:50:13.389Z,44.93
2023-05-16T01:53:00.812Z,45.08
2023-05-16T01:55:48.597Z,45.26
2023-05-16T01:58:21.970Z,45.30
2023-05-16T02:00:53.381Z,45.35
2023-05-16T02:03:23.583Z,45.52
2023-05-16T02:05:53.212Z,45.64
2023-05-16T02:08:22.854Z,45.61
2023-05-16T02:10:53.078Z,45.60
2023-05-16T02:13:23.290Z,45.55
2023-05-16T02:15:52.895Z,45.63
2023-05-16T02:18:23.869Z,45.56
2023-05-16T02:20:52.698Z,45.63
2023-05-16T02:23:22.188Z,45.75
2023-05-16T02:25:51.652Z,45.65
2023-05-16T02:28:22.178Z,45.66
2023-05-16T02:30:59.289Z,45.65
2023-05-16T02:33:29.092Z,45.65
2023-05-16T02:35:58.532Z,45.59
2023-05-16T02:38:28.232Z,45.50
2023-05-16T02:40:58.431Z,45.48
2023-05-16T02:43:27.962Z,45.41
2023-05-16T02:45:57.554Z,45.40
2023-05-16T02:48:26.430Z,45.34
2023-05-16T02:50:55.782Z,45.32
2023-05-16T02:53:24.908Z,45.25
2023-05-16T02:55:53.952Z,45.26
2023-05-16T02:58:23.152Z,45.31
2023-05-16T03:00:52.888Z,45.51
2023-05-16T03:03:22.444Z,45.42
2023-05-16T03:05:51.599Z,45.48
2023-05-16T03:08:21.219Z,45.31
2023-05-16T03:10:50.777Z,45.35
2023-05-16T03:13:23.298Z,45.63
2023-05-16T03:15:52.975Z,45.63
2023-05-16T03:18:22.295Z,45.81
2023-05-16T03:20:53.235Z,45.68
2023-05-16T03:23:22.576Z,45.74
2023-05-16T03:25:51.999Z,45.70
2023-05-16T03:28:23.313Z,45.83
2023-05-16T03:30:53.971Z,45.53
2023-05-16T03:33:24.466Z,45.60
2023-05-16T03:35:53.886Z,45.59
2023-05-16T03:38:23.022Z,45.27
2023-05-16T03:40:52.834Z,44.92
2023-05-16T03:43:22.224Z,44.96
2023-05-16T03:45:51.081Z,45.01
2023-05-16T03:48:20.837Z,44.86
2023-05-16T03:50:51.309Z,44.79
2023-05-16T03:53:21.688Z,44.77
2023-05-16T03:55:51.634Z,44.85
2023-05-16T03:58:20.502Z,44.89
2023-05-16T04:00:49.819Z,44.94
2023-05-16T04:03:20.229Z,44.88
2023-05-16T04:05:49.320Z,44.85
2023-05-16T04:08:20.276Z,44.84
2023-05-16T04:10:49.828Z,44.85
2023-05-16T04:13:19.105Z,44.56
2023-05-16T04:15:48.265Z,44.54
2023-05-16T04:18:17.581Z,44.36
2023-05-16T04:20:48.385Z,44.18
2023-05-16T04:23:17.579Z,44.25
2023-05-16T04:25:47.979Z,44.10
2023-05-16T04:28:18.925Z,44.07
2023-05-16T04:30:48.470Z,43.82
2023-05-16T04:33:18.693Z,43.49
2023-05-16T04:35:48.392Z,43.14
2023-05-16T04:38:17.656Z,42.93
2023-05-16T04:40:46.889Z,42.94
2023-05-16T04:43:15.981Z,42.91
2023-05-16T04:45:45.408Z,42.75
2023-05-16T04:48:15.196Z,42.77
2023-05-16T04:50:44.876Z,42.86
2023-05-16T04:53:14.890Z,42.85
2023-05-16T04:55:44.522Z,42.75
2023-05-16T04:58:13.552Z,42.62
2023-05-16T05:00:42.931Z,42.69
2023-05-16T05:03:12.563Z,42.67
2023-05-16T05:05:42.593Z,42.66
2023-05-16T05:08:11.733Z,42.33
2023-05-16T05:10:40.935Z,42.32
2023-05-16T05:13:11.837Z,42.02
2023-05-16T05:15:41.037Z,42.13
2023-05-16T05:18:10.294Z,41.82
2023-05-16T05:20:39.629Z,41.68
2023-05-16T05:23:09.524Z,42.01
2023-05-16T05:25:39.396Z,42.56
2023-05-16T05:28:08.768Z,42.22
2023-05-16T05:30:42.283Z,41.99
2023-05-16T05:33:13.963Z,42.19
2023-05-16T05:35:43.478Z,42.38
2023-05-16T05:38:14.621Z,42.24
2023-05-16T05:40:44.793Z,41.93
2023-05-16T05:43:14.723Z,41.90
2023-05-16T05:45:44.390Z,41.62
2023-05-16T05:48:14.236Z,41.82
2023-05-16T05:50:43.135Z,42.08
2023-05-16T05:53:15.881Z,42.93
2023-05-16T05:55:45.029Z,43.58
2023-05-16T05:58:14.632Z,44.58
2023-05-16T06:00:43.821Z,45.20
2023-05-16T06:03:14.702Z,45.11
2023-05-16T06:05:44.679Z,45.80
2023-05-16T06:08:14.558Z,46.06
2023-05-16T06:10:44.973Z,46.27
2023-05-16T06:13:14.664Z,45.83
2023-05-16T06:15:44.508Z,45.63
2023-05-16T06:18:14.815Z,46.17
2023-05-16T06:20:44.813Z,45.97
2023-05-16T06:23:14.406Z,46.32
2023-05-16T06:25:43.940Z,45.92
2023-05-16T06:28:13.650Z,46.00
2023-05-16T06:30:42.727Z,45.63
2023-05-16T06:33:12.317Z,45.64
2023-05-16T06:35:41.578Z,45.74
2023-05-16T06:38:11.698Z,45.49
2023-05-16T06:40:41.270Z,45.16
2023-05-16T06:43:12.312Z,45.11
2023-05-16T06:45:42.120Z,44.81
2023-05-16T06:48:13.553Z,44.52
2023-05-16T06:50:43.057Z,44.42
2023-05-16T06:53:13.146Z,43.97
2023-05-16T06:55:42.912Z,43.56
2023-05-16T06:58:13.440Z,43.61
2023-05-16T07:00:44.627Z,43.64
2023-05-16T07:03:14.591Z,43.50
2023-05-16T07:05:44.399Z,43.40
2023-05-16T07:08:14.610Z,43.35
2023-05-16T07:10:44.781Z,43.31
2023-05-16T07:13:14.555Z,43.48
2023-05-16T07:15:44.056Z,43.64
2023-05-16T07:18:14.122Z,43.71
2023-05-16T07:20:43.928Z,43.68
2023-05-16T07:23:13.669Z,43.67
2023-05-16T07:25:43.266Z,43.58
2023-05-16T07:28:13.662Z,43.52
2023-05-16T07:30:43.915Z,43.33
2023-05-16T07:33:14.183Z,43.38
2023-05-16T07:35:43.763Z,43.24
2023-05-16T07:38:13.670Z,43.27
2023-05-16T07:40:44.446Z,43.11
2023-05-16T07:43:14.694Z,43.09
2023-05-16T07:45:43.816Z,42.95
2023-05-16T07:48:13.681Z,42.98
2023-05-16T07:50:44.105Z,42.93
2023-05-16T07:53:13.972Z,42.71
2023-05-16T07:55:44.333Z,42.45
2023-05-16T07:58:14.667Z,42.46
2023-05-16T08:00:44.418Z,42.52
2023-05-16T08:03:14.446Z,42.76
2023-05-16T08:05:44.241Z,42.98
2023-05-16T08:08:14.162Z,43.54
2023-05-16T08:10:44.083Z,45.38
2023-05-16T08:13:13.678Z,45.21
2023-05-16T08:15:43.135Z,45.69
2023-05-16T08:18:16.736Z,46.15
2023-05-16T08:20:46.851Z,47.02
2023-05-16T08:23:16.748Z,46.61
2023-05-16T08:25:46.430Z,47.37
2023-05-16T08:28:22.760Z,48.77
2023-05-16T08:30:54.358Z,50.58
2023-05-16T08:33:24.552Z,51.86
2023-05-16T08:35:54.106Z,54.45
2023-05-16T08:38:23.643Z,55.53
2023-05-16T08:40:53.578Z,56.89
2023-05-16T08:43:23.989Z,56.64
2023-05-16T08:45:53.632Z,57.12
2023-05-16T08:48:24.333Z,57.59
2023-05-16T08:50:54.025Z,58.67
2023-05-16T08:53:27.848Z,57.42
2023-05-16T08:55:57.269Z,57.88
2023-05-16T08:58:26.526Z,58.33
2023-05-16T09:00:56.236Z,57.64
2023-05-16T09:03:25.842Z,57.79
2023-05-16T09:05:55.993Z,57.95
2023-05-16T09:08:26.714Z,56.49
2023-05-16T09:10:56.106Z,55.06
2023-05-16T09:13:26.405Z,55.31
2023-05-16T09:16:16.898Z,54.59
2023-05-16T09:18:49.425Z,54.30
2023-05-16T09:21:19.056Z,53.64
2023-05-16T09:23:50.856Z,53.11
2023-05-16T09:26:22.169Z,52.70
2023-05-16T09:28:57.698Z,52.90
2023-05-16T09:31:30.669Z,52.64
2023-05-16T09:34:00.328Z,52.03
2023-05-16T09:36:29.798Z,52.02
2023-05-16T09:38:58.937Z,50.73
2023-05-16T09:41:27.760Z,50.44
2023-05-16T09:43:58.028Z,50.34
2023-05-16T09:46:28.281Z,50.22
2023-05-16T09:48:57.797Z,49.61
2023-05-16T09:51:27.058Z,50.08
2023-05-16T09:53:58.801Z,49.97
2023-05-16T09:56:30.027Z,50.36
2023-05-16T09:58:59.639Z,50.30
2023-05-16T10:01:29.346Z,50.41
2023-05-16T10:03:59.802Z,50.25
2023-05-16T10:06:31.058Z,50.19
2023-05-16T10:09:03.033Z,50.32
2023-05-16T10:11:32.819Z,48.66
2023-05-16T10:14:02.528Z,46.32
2023-05-16T10:16:31.854Z,45.33
2023-05-16T10:19:01.936Z,44.96
2023-05-16T10:21:31.726Z,43.99
2023-05-16T10:24:03.711Z,42.71
2023-05-16T10:26:33.154Z,43.00
2023-05-16T10:29:04.423Z,43.00
2023-05-16T10:31:33.980Z,41.76
2023-05-16T10:34:03.677Z,42.28
2023-05-16T10:36:33.615Z,42.30
2023-05-16T10:39:02.723Z,42.80
2023-05-16T10:41:33.694Z,42.43
2023-05-16T10:44:04.568Z,42.03
2023-05-16T10:46:34.019Z,42.14
2023-05-16T10:49:21.558Z,41.68
2023-05-16T10:52:08.783Z,41.41
2023-05-16T10:54:42.346Z,41.37
2023-05-16T10:57:14.990Z,41.35
2023-05-16T10:59:51.796Z,41.55
2023-05-16T11:02:33.249Z,41.68
2023-05-16T11:05:02.831Z,41.60
2023-05-16T11:07:35.804Z,41.91
2023-05-16T11:10:10.624Z,41.59
2023-05-16T11:12:50.001Z,41.93
2023-05-16T11:15:28.435Z,41.96
2023-05-16T11:18:16.967Z,41.61
2023-05-16T11:20:45.786Z,41.58
2023-05-16T11:23:21.800Z,41.62
2023-05-16T11:25:56.661Z,41.49
2023-05-16T11:28:26.532Z,41.18
2023-05-16T11:30:58.188Z,41.13
2023-05-16T11:33:28.927Z,41.14
2023-05-16T11:38:42.139Z,40.55
2023-05-16T11:41:11.334Z,40.68
2023-05-16T11:43:43.397Z,40.90
2023-05-16T11:46:17.048Z,41.02
2023-05-16T11:48:48.530Z,40.81
2023-05-16T11:51:20.952Z,41.03
2023-05-16T11:53:50.237Z,41.18
2023-05-16T11:56:18.959Z,41.20
2023-05-16T11:58:47.822Z,41.25
2023-05-16T12:01:17.048Z,41.21
2023-05-16T12:03:46.693Z,41.04
2023-05-16T12:06:15.809Z,40.89
2023-05-16T12:08:53.250Z,40.68
2023-05-16T12:11:23.998Z,40.74
2023-05-16T12:13:52.980Z,40.71
2023-05-16T12:16:21.808Z,40.53
2023-05-16T12:18:52.893Z,40.55
2023-05-16T12:21:22.531Z,40.52
2023-05-16T12:23:57.174Z,40.08
2023-05-16T12:26:30.232Z,40.36
2023-05-16T12:29:04.834Z,40.56
2023-05-16T12:31:38.316Z,40.57
2023-05-16T12:34:16.545Z,40.85
2023-05-16T12:36:45.660Z,40.58
2023-05-16T12:39:15.174Z,40.84
2023-05-16T12:41:44.055Z,40.87
2023-05-16T12:44:17.443Z,40.90
2023-05-16T12:46:48.235Z,40.92
2023-05-16T12:49:25.188Z,41.01
2023-05-16T12:51:54.644Z,41.07
2023-05-16T12:54:23.827Z,41.06
2023-05-16T12:56:52.800Z,41.11
2023-05-16T12:59:22.210Z,41.32
2023-05-16T13:01:51.726Z,42.24
2023-05-16T13:04:20.614Z,43.14
2023-05-16T13:09:21.166Z,42.78
2023-05-16T13:11:50.293Z,43.22
2023-05-16T13:14:19.010Z,42.78
2023-05-16T13:16:47.819Z,42.99
2023-05-16T13:19:17.010Z,43.21
2023-05-16T13:21:46.036Z,43.19
2023-05-16T13:24:14.714Z,43.19
2023-05-16T13:26:44.013Z,42.74
2023-05-16T13:29:13.099Z,42.34
2023-05-16T13:31:41.764Z,42.12
2023-05-16T13:34:10.892Z,41.87
2023-05-16T13:36:53.079Z,41.65
2023-05-16T13:39:11.477Z,41.33
2023-05-16T13:41:40.517Z,41.15
2023-05-16T13:44:10.151Z,41.30
2023-05-16T13:46:38.931Z,41.51
2023-05-16T13:49:08.662Z,40.96
2023-05-16T13:51:37.819Z,41.05
2023-05-16T13:54:09.669Z,40.68
2023-05-16T13:56:38.688Z,40.82
2023-05-16T13:59:10.205Z,40.40
2023-05-16T14:01:39.320Z,40.40
2023-05-16T14:04:11.312Z,40.41
2023-05-16T14:06:40.421Z,40.49
2023-05-16T14:09:13.035Z,40.45
2023-05-16T14:11:42.099Z,40.42
2023-05-16T14:14:11.729Z,40.00
2023-05-16T14:16:43.279Z,40.10
2023-05-16T14:19:14.483Z,39.88
2023-05-16T14:21:43.802Z,39.96
2023-05-16T14:24:12.532Z,39.86
2023-05-16T14:26:41.108Z,39.67
2023-05-16T14:29:11.999Z,39.73
2023-05-16T14:31:42.145Z,39.80
2023-05-16T14:34:13.005Z,39.76
2023-05-16T14:36:43.861Z,39.71
2023-05-16T14:39:12.762Z,40.01
2023-05-16T14:41:43.149Z,40.08
2023-05-16T14:44:13.256Z,40.10
2023-05-16T14:46:42.245Z,40.04
2023-05-16T14:49:11.084Z,40.02
2023-05-16T14:51:40.038Z,39.98
2023-05-16T14:54:08.911Z,39.97
2023-05-16T14:56:38.180Z,40.05
2023-05-16T14:59:07.126Z,39.77
2023-05-16T15:01:36.221Z,39.76
2023-05-16T15:04:06.753Z,40.04
2023-05-16T15:06:36.545Z,40.14
2023-05-16T15:09:08.235Z,40.00
2023-05-16T15:11:37.563Z,39.98
2023-05-16T15:14:07.005Z,40.24
2023-05-16T15:16:37.053Z,40.26
2023-05-16T15:19:06.081Z,40.29
2023-05-16T15:21:35.541Z,40.24
2023-05-16T15:24:04.958Z,40.34
2023-05-16T15:26:34.369Z,40.38
2023-05-16T15:29:03.282Z,40.37
2023-05-16T15:31:34.073Z,40.45
2023-05-16T15:34:03.065Z,40.52
2023-05-16T15:36:31.856Z,40.53
2023-05-16T15:39:01.496Z,40.84
2023-05-16T15:41:56.272Z,40.88
2023-05-16T15:44:02.359Z,40.71
2023-05-16T15:46:32.510Z,40.83
2023-05-16T15:49:03.141Z,40.74
2023-05-16T15:51:31.833Z,40.91
2023-05-16T15:54:00.682Z,40.85
2023-05-16T15:56:29.176Z,40.59
2023-05-16T15:58:58.303Z,40.56
2023-05-16T16:01:28.727Z,40.47
2023-05-16T16:03:58.274Z,40.37
2023-05-16T16:06:27.274Z,40.61
2023-05-16T16:08:55.996Z,40.54
2023-05-16T16:11:26.727Z,40.40
2023-05-16T16:13:55.345Z,40.36
2023-05-16T16:16:24.127Z,40.44
2023-05-16T16:18:53.911Z,40.51
2023-05-16T16:21:23.680Z,40.59
2023-05-16T16:23:53.856Z,40.65
2023-05-16T16:26:22.740Z,40.57
2023-05-16T16:28:51.899Z,40.59
2023-05-16T16:31:20.812Z,40.74
2023-05-16T16:33:50.030Z,40.92
2023-05-16T16:36:19.389Z,41.08
2023-05-16T16:38:48.210Z,40.92
2023-05-16T16:41:17.726Z,40.69
2023-05-16T16:43:46.420Z,40.67
2023-05-16T16:46:15.395Z,40.76
2023-05-16T16:48:44.300Z,40.80
2023-05-16T16:51:13.306Z,40.85
2023-05-16T16:53:42.741Z,40.97
2023-05-16T16:56:14.142Z,41.02
2023-05-16T16:58:44.162Z,41.03
2023-05-16T17:01:13.903Z,40.87
2023-05-16T17:03:43.511Z,41.03
2023-05-16T17:06:12.138Z,41.23
2023-05-16T17:08:40.754Z,41.21
2023-05-16T17:11:09.550Z,41.31
2023-05-16T17:13:41.508Z,41.37
2023-05-16T17:16:10.565Z,41.38
2023-05-16T17:18:41.157Z,41.51
2023-05-16T17:21:12.074Z,41.82
2023-05-16T17:23:44.048Z,41.71
2023-05-16T17:26:13.689Z,41.77
2023-05-16T17:28:44.343Z,41.88
2023-05-16T17:31:13.225Z,41.91
2023-05-16T17:33:42.272Z,41.90
2023-05-16T17:36:11.438Z,42.03
2023-05-16T17:38:40.851Z,42.14
2023-05-16T17:41:09.730Z,42.34
2023-05-16T17:43:38.969Z,42.39
2023-05-16T17:46:07.883Z,42.51
2023-05-16T17:48:37.261Z,42.55
2023-05-16T17:51:06.609Z,42.66
2023-05-16T17:53:36.179Z,42.66
2023-05-16T17:56:07.691Z,42.81
2023-05-16T17:58:36.723Z,42.87
2023-05-16T18:01:07.317Z,42.95
2023-05-16T18:03:36.662Z,43.04
2023-05-16T18:06:06.762Z,43.09
2023-05-16T18:08:36.441Z,43.25
2023-05-16T18:11:05.289Z,43.43
2023-05-16T18:13:35.418Z,43.65
2023-05-16T18:16:05.433Z,43.82
2023-05-16T18:18:36.363Z,43.93
2023-05-16T18:21:06.006Z,44.17
2023-05-16T18:23:39.323Z,44.34
2023-05-16T18:26:09.185Z,44.54
2023-05-16T18:28:39.610Z,44.75
2023-05-16T18:31:08.730Z,44.95
2023-05-16T18:36:28.708Z,45.36
2023-05-16T18:38:58.445Z,45.53
2023-05-16T18:41:28.671Z,45.61
2023-05-16T18:43:57.339Z,45.68
2023-05-16T18:46:27.763Z,45.82
2023-05-16T18:48:57.850Z,45.98
2023-05-16T18:51:28.142Z,45.98
2023-05-16T18:53:57.529Z,46.00
2023-05-16T18:56:27.684Z,46.11
2023-05-16T18:58:57.165Z,46.26
2023-05-16T19:01:25.947Z,46.27
2023-05-16T19:03:55.152Z,46.27
2023-05-16T19:06:24.043Z,46.28
2023-05-16T19:08:53.376Z,46.28
2023-05-16T19:11:22.789Z,46.33
2023-05-16T19:13:51.851Z,46.46
2023-05-16T19:16:20.923Z,46.54
2023-05-16T19:18:49.831Z,46.54
2023-05-16T19:21:18.832Z,46.68
2023-05-16T19:23:48.040Z,46.70
2023-05-16T19:26:17.024Z,46.74
2023-05-16T19:28:45.919Z,46.82
2023-05-16T19:31:16.329Z,46.96
2023-05-16T19:33:45.138Z,47.00
2023-05-16T19:36:13.839Z,47.16
2023-05-16T19:38:43.019Z,47.30
2023-05-16T19:41:12.389Z,47.51
2023-05-16T19:43:44.615Z,47.57
2023-05-16T19:46:14.827Z,47.65
2023-05-16T19:48:44.026Z,47.80
2023-05-16T19:51:13.216Z,47.92
2023-05-16T19:53:42.808Z,48.00
2023-05-16T19:56:11.820Z,48.20
2023-05-16T19:58:44.094Z,48.31
2023-05-16T20:01:13.327Z,48.45
2023-05-16T20:03:42.663Z,48.65
2023-05-16T20:06:11.902Z,48.77
2023-05-16T20:08:40.797Z,48.89
2023-05-16T20:11:09.883Z,49.08
2023-05-16T20:13:39.383Z,49.20
2023-05-16T20:16:08.218Z,49.21
2023-05-16T20:18:37.129Z,49.27
2023-05-16T20:21:06.272Z,49.47
2023-05-16T20:23:35.832Z,49.67
2023-05-16T20:26:04.693Z,49.83
2023-05-16T20:28:33.354Z,49.89
2023-05-16T20:31:02.146Z,49.91
2023-05-16T20:33:31.731Z,49.96
2023-05-16T20:36:00.434Z,50.13
2023-05-16T20:38:29.331Z,50.15
2023-05-16T20:40:58.320Z,50.18
2023-05-16T20:43:27.912Z,50.19
2023-05-16T20:45:57.042Z,50.25
2023-05-16T20:48:28.297Z,50.36
2023-05-16T20:50:57.383Z,50.42
2023-05-16T20:53:26.717Z,50.53
2023-05-16T20:55:55.414Z,50.52
2023-05-16T20:58:25.089Z,50.55
2023-05-16T21:00:53.711Z,50.56
2023-05-16T21:03:23.585Z,50.62
2023-05-16T21:05:53.400Z,50.70
2023-05-16T21:08:22.110Z,50.83
2023-05-16T21:10:51.102Z,50.93
2023-05-16T21:13:20.753Z,51.08
2023-05-16T21:15:49.474Z,51.19
2023-05-16T21:18:18.322Z,51.25
2023-05-16T21:20:47.994Z,51.33
2023-05-16T21:23:16.781Z,51.49
2023-05-16T21:25:45.976Z,51.58
2023-05-16T21:28:14.988Z,51.65
2023-05-16T21:30:44.266Z,51.67
2023-05-16T21:33:13.737Z,51.78
2023-05-16T21:35:42.777Z,51.80
2023-05-16T21:38:12.387Z,51.92
2023-05-16T21:40:41.187Z,52.00
2023-05-16T21:43:09.834Z,52.11
2023-05-16T21:45:40.497Z,52.17
2023-05-16T21:48:10.529Z,52.31
2023-05-16T21:50:41.130Z,52.36
2023-05-16T21:53:09.979Z,52.28
2023-05-16T21:55:38.537Z,52.28
2023-05-16T21:58:07.599Z,52.34
2023-05-16T22:00:36.394Z,52.45
2023-05-16T22:03:06.744Z,52.55
2023-05-16T22:05:35.396Z,52.63
2023-05-16T22:08:05.040Z,52.68
2023-05-16T22:10:33.624Z,52.74
2023-05-16T22:13:02.216Z,52.83
2023-05-16T22:15:31.352Z,52.93
2023-05-16T22:18:00.162Z,53.00
2023-05-16T22:20:29.943Z,53.12
2023-05-16T22:22:59.260Z,53.21
2023-05-16T22:25:28.129Z,53.20
2023-05-16T22:27:57.174Z,53.27
2023-05-16T22:30:26.065Z,53.30
2023-05-16T22:32:56.618Z,53.44
2023-05-16T22:35:27.257Z,53.54
2023-05-16T22:37:56.219Z,53.66
2023-05-16T22:40:26.900Z,53.74
2023-05-16T22:42:56.696Z,53.86
2023-05-16T22:45:25.814Z,53.79
2023-05-16T22:47:55.022Z,53.77
2023-05-16T22:50:24.636Z,53.77
2023-05-16T22:52:53.801Z,53.88
2023-05-16T22:55:24.022Z,53.86
2023-05-16T22:57:54.845Z,53.84
2023-05-16T23:00:24.255Z,53.76
2023-05-16T23:02:52.985Z,53.61
2023-05-16T23:05:21.937Z,53.49
2023-05-16T23:07:50.842Z,53.48
2023-05-16T23:10:19.862Z,53.41
2023-05-16T23:12:49.024Z,53.41
2023-05-16T23:15:19.828Z,53.36
2023-05-16T23:17:48.734Z,53.35
2023-05-16T23:20:17.963Z,53.38
2023-05-16T23:22:46.589Z,53.44
2023-05-16T23:25:15.235Z,53.40
2023-05-16T23:27:44.610Z,53.46
2023-05-16T23:30:14.810Z,53.48
2023-05-16T23:32:43.918Z,53.52
2023-05-16T23:35:13.265Z,53.63
2023-05-16T23:37:42.268Z,53.74
2023-05-16T23:40:11.846Z,53.81
2023-05-16T23:42:40.963Z,53.91
2023-05-16T23:45:10.517Z,54.07
2023-05-16T23:47:41.187Z,54.15
2023-05-16T23:50:10.948Z,54.29
2023-05-16T23:52:40.387Z,54.45
2023-05-16T23:55:10.039Z,54.52
2023-05-16T23:57:41.059Z,54.63
